Terminal Aerodrome Forecast
Issued by NWS Spokane, WA

Home | Current Version | Previous Version | Text Only | Print | Product List | Glossary On
Versions: 1 2 3 4 5 6 7 8 9 10 11 12 13 14 15 16 17
000
FTUS46 KOTX 101741
TAFLWS
TAF
KLWS 101741Z 1018/1118 24004KT P6SM BKN025 OVC030
     FM102000 29005KT P6SM BKN025
     FM110500 16007KT P6SM VCSH BKN015 OVC035
     FM111000 17007KT 4SM -SN BKN010 OVC015
     FM111500 20008KT P6SM VCSH BKN012 OVC020=

USA.gov is the U.S. government's official web portal to all federal, state and local government web resources and services.